Time;durP1;ratioP1;P1;durP2;ratioP2;P2;SDS_P1;SDS_P2;PMS_P1;PMS_P2;Temp;Humidity;BMP_temperature;BMP_pressure;BME280_temperature;BME280_humidity;BME280_pressure;Samples;Min_cycle;Max_cycle;Signal;HPM_P1;HPM_P2
2023/09/10 00:01:34;;;;;;;10.95;5.13;;;;;;;15.49;66.58;95223.63;4787928;29;20181;-68
2023/09/10 00:04:00;;;;;;;8.75;4.80;;;;;;;15.48;66.27;95233.44;4787913;29;20206;-68
2023/09/10 00:06:25;;;;;;;12.00;4.78;;;;;;;15.47;66.23;95231.84;4787925;29;20212;-68
2023/09/10 00:08:50;;;;;;;9.57;4.95;;;;;;;15.45;66.20;95235.78;4788003;29;20196;-68
2023/09/10 00:11:16;;;;;;;10.50;4.47;;;;;;;15.40;65.80;95238.28;4787836;29;20180;-68
2023/09/10 00:13:41;;;;;;;9.98;3.97;;;;;;;15.36;65.32;95250.41;4787679;29;20180;-68
2023/09/10 00:16:06;;;;;;;11.07;5.40;;;;;;;15.17;66.78;95236.44;4785065;29;20421;-68
2023/09/10 00:18:32;;;;;;;11.67;5.87;;;;;;;14.98;67.70;95232.28;4786940;30;20886;-68
2023/09/10 00:20:57;;;;;;;13.50;5.30;;;;;;;14.97;66.95;95238.59;4787659;29;20184;-68
2023/09/10 00:23:23;;;;;;;10.17;4.90;;;;;;;14.71;67.38;95237.16;4786611;29;20445;-68
2023/09/10 00:25:48;;;;;;;9.87;3.67;;;;;;;14.66;67.17;95234.41;4787010;29;20453;-68
2023/09/10 00:28:13;;;;;;;8.05;3.72;;;;;;;14.56;67.67;95210.28;4786846;30;20835;-68
2023/09/10 00:30:39;;;;;;;14.15;4.80;;;;;;;14.87;67.05;95222.47;4787316;30;20314;-68
2023/09/10 00:33:04;;;;;;;8.73;4.03;;;;;;;15.04;66.83;95228.72;4787417;29;20181;-68
2023/09/10 00:35:30;;;;;;;18.95;11.05;;;;;;;15.16;67.04;95231.38;4787427;29;20187;-68
2023/09/10 00:37:55;;;;;;;39.20;19.45;;;;;;;15.25;67.01;95230.81;4787337;29;20559;-68
2023/09/10 00:40:21;;;;;;;40.22;16.60;;;;;;;15.30;66.33;95225.63;4787309;29;20259;-68
2023/09/10 00:42:46;;;;;;;31.60;14.07;;;;;;;15.34;66.29;95226.78;4786884;30;20192;-68
2023/09/10 00:45:12;;;;;;;20.17;10.57;;;;;;;15.29;66.06;95231.97;4803940;29;20447;-68
2023/09/10 00:47:43;;;;;;;18.23;8.90;;;;;;;15.27;66.39;95223.44;4805138;29;20184;-68
2023/09/10 00:50:10;;;;;;;44.38;22.30;;;;;;;15.14;66.70;95209.56;4804922;29;20428;-68
2023/09/10 00:52:37;;;;;;;31.70;14.30;;;;;;;15.32;66.72;95228.03;4805126;29;20183;-68
2023/09/10 00:55:04;;;;;;;28.92;15.88;;;;;;;15.32;66.85;95234.16;4805134;29;20191;-68
2023/09/10 00:57:29;;;;;;;33.72;16.48;;;;;;;15.35;67.14;95239.00;4804838;29;20180;-68
2023/09/10 00:59:55;;;;;;;30.27;15.63;;;;;;;15.34;66.79;95236.56;4805058;29;20198;-68
2023/09/10 01:02:20;;;;;;;26.67;13.35;;;;;;;15.33;66.84;95237.59;4804894;29;20683;-68
2023/09/10 01:04:46;;;;;;;20.27;11.38;;;;;;;15.30;66.28;95230.94;4804997;29;20191;-68
2023/09/10 01:07:11;;;;;;;10.75;6.32;;;;;;;15.13;66.25;95208.78;4804730;29;20858;-68
2023/09/10 01:09:37;;;;;;;10.05;5.30;;;;;;;15.24;66.26;95231.03;4804884;29;20191;-68
2023/09/10 01:12:14;;;;;;;10.20;4.57;;;;;;;15.22;66.31;95235.78;4805017;29;20199;-68
2023/09/10 01:14:55;;;;;;;9.10;4.20;;;;;;;15.19;66.22;95225.63;4804630;29;20634;-68
2023/09/10 01:18:01;;;;;;;6.63;3.80;;;;;;;15.11;66.24;95226.78;4804759;29;20268;-68
2023/09/10 01:20:41;;;;;;;8.70;4.53;;;;;;;15.09;66.79;95220.88;4804260;29;20664;-68
2023/09/10 01:23:15;;;;;;;8.00;4.20;;;;;;;15.00;67.47;95220.41;4803545;29;20443;-68
2023/09/10 01:25:41;;;;;;;13.30;4.68;;;;;;;14.98;67.18;95217.19;4804888;29;20207;-68
2023/09/10 01:28:07;;;;;;;10.73;3.97;;;;;;;14.95;67.04;95219.50;4804530;29;20190;-68
2023/09/10 01:30:33;;;;;;;6.50;3.92;;;;;;;14.92;67.59;95223.41;4804470;29;20228;-68
2023/09/10 01:33:23;;;;;;;11.60;4.20;;;;;;;14.93;68.36;95218.91;4803223;29;20500;-68
2023/09/10 01:35:57;;;;;;;9.98;4.15;;;;;;;14.92;67.87;95215.44;4803831;29;20195;-68
2023/09/10 01:38:33;;;;;;;5.85;3.42;;;;;;;14.98;67.59;95227.78;4804576;29;20179;-68
2023/09/10 01:41:16;;;;;;;7.35;3.75;;;;;;;14.95;67.19;95228.25;4804348;29;20683;-68
2023/09/10 01:43:43;;;;;;;8.50;3.22;;;;;;;14.93;67.52;95232.16;4804107;29;20728;-68
2023/09/10 01:46:10;;;;;;;7.97;3.45;;;;;;;14.75;67.77;95217.16;4803840;29;20207;-68
2023/09/10 01:48:36;;;;;;;8.00;3.30;;;;;;;14.80;67.97;95232.34;4803800;29;20274;-68
2023/09/10 01:51:02;;;;;;;7.47;3.83;;;;;;;14.64;68.23;95216.06;4803059;29;21008;-68
2023/09/10 01:53:27;;;;;;;8.48;3.90;;;;;;;14.74;67.80;95242.03;4803919;29;20198;-68
2023/09/10 01:55:53;;;;;;;7.60;3.57;;;;;;;14.67;68.34;95231.53;4803128;29;20443;-68
2023/09/10 01:58:18;;;;;;;6.35;3.38;;;;;;;14.72;67.86;95236.94;4803942;29;20676;-68
2023/09/10 02:00:45;;;;;;;5.78;3.78;;;;;;;14.76;67.53;95233.84;4803764;29;20575;-68
2023/09/10 02:03:11;;;;;;;6.47;3.58;;;;;;;14.54;66.62;95239.66;4803479;29;20821;-68
2023/09/10 02:05:36;;;;;;;7.82;4.00;;;;;;;14.34;68.49;95242.56;4787342;29;20200;-68
2023/09/10 02:08:02;;;;;;;9.23;3.78;;;;;;;14.38;68.60;95240.28;4804032;29;20255;-68
2023/09/10 02:10:28;;;;;;;10.23;4.25;;;;;;;14.43;68.82;95243.09;4803741;29;20179;-68
2023/09/10 02:12:53;;;;;;;6.82;3.47;;;;;;;14.39;68.97;95233.16;4803528;29;20559;-68
2023/09/10 02:15:19;;;;;;;11.38;4.10;;;;;;;14.49;69.00;95251.97;4803748;29;20266;-68
2023/09/10 02:17:44;;;;;;;8.23;3.45;;;;;;;14.52;69.21;95252.34;4803515;29;20248;-68
2023/09/10 02:20:10;;;;;;;12.18;3.80;;;;;;;14.53;68.86;95248.63;4803655;29;20653;-68
2023/09/10 02:22:40;;;;;;;7.57;4.28;;;;;;;14.48;69.57;95245.88;4802779;29;20471;-68
2023/09/10 02:25:07;;;;;;;12.10;4.00;;;;;;;14.54;69.17;95255.56;4803752;29;20215;-68
2023/09/10 02:27:33;;;;;;;8.07;4.07;;;;;;;14.54;69.04;95252.09;4803575;29;20211;-68
2023/09/10 02:29:59;;;;;;;13.30;3.88;;;;;;;14.49;69.04;95251.97;4803483;29;20227;-68
2023/09/10 02:32:25;;;;;;;8.90;3.83;;;;;;;14.47;69.37;95251.38;4803442;29;20617;-68
2023/09/10 02:34:53;;;;;;;6.43;3.53;;;;;;;14.47;69.86;95252.19;4783387;29;20208;-68
2023/09/10 02:37:19;;;;;;;7.28;3.80;;;;;;;14.46;69.88;95255.88;4785418;29;20180;-68
2023/09/10 02:39:44;;;;;;;8.37;3.27;;;;;;;14.48;69.72;95247.72;4785359;30;20582;-68
2023/09/10 02:42:09;;;;;;;7.57;3.30;;;;;;;14.39;69.76;95238.47;4785290;29;20210;-68
2023/09/10 02:44:35;;;;;;;10.20;3.50;;;;;;;14.47;69.39;95246.91;4785347;29;20259;-68
2023/09/10 02:47:00;;;;;;;9.07;4.07;;;;;;;14.42;69.25;95240.66;4783292;30;20803;-68
2023/09/10 02:49:26;;;;;;;7.27;3.93;;;;;;;14.38;69.62;95242.09;4785386;29;20283;-68
2023/09/10 02:51:51;;;;;;;6.17;3.20;;;;;;;14.39;69.62;95236.63;4785306;29;20185;-68
2023/09/10 02:54:16;;;;;;;10.53;3.60;;;;;;;14.35;69.44;95232.78;4799373;29;20653;-68
2023/09/10 02:56:42;;;;;;;7.47;3.90;;;;;;;14.29;69.78;95236.31;4803248;29;20176;-68
2023/09/10 02:59:20;;;;;;;8.73;3.97;;;;;;;14.28;70.23;95242.63;4802411;29;20420;-68
2023/09/10 03:01:46;;;;;;;10.80;6.25;;;;;;;14.31;69.96;95242.19;4803214;29;20547;-68
2023/09/10 03:04:13;;;;;;;17.50;7.78;;;;;;;14.28;69.96;95238.16;4803072;29;20267;-68
2023/09/10 03:06:38;;;;;;;12.75;6.35;;;;;;;14.31;70.12;95242.19;4803105;29;20223;-68
2023/09/10 03:09:04;;;;;;;13.35;7.63;;;;;;;14.31;70.45;95242.19;4802193;29;20928;-68
2023/09/10 03:11:31;;;;;;;12.98;7.80;;;;;;;14.33;69.98;95240.97;4803050;29;20178;-68
2023/09/10 03:13:56;;;;;;;17.77;9.37;;;;;;;14.32;69.84;95249.13;4803218;29;20191;-68
2023/09/10 03:16:23;;;;;;;20.48;10.80;;;;;;;14.26;70.11;95250.03;4802968;29;20184;-68
2023/09/10 03:18:49;;;;;;;20.03;12.30;;;;;;;14.11;70.14;95231.03;4803024;29;20188;-68
2023/09/10 03:21:14;;;;;;;24.92;13.85;;;;;;;14.20;70.59;95250.91;4802926;29;20251;-68
2023/09/10 03:23:40;;;;;;;19.25;14.07;;;;;;;14.12;71.12;95252.00;4801866;29;20812;-68
2023/09/10 03:26:11;;;;;;;24.30;15.60;;;;;;;14.11;71.21;95254.88;4803154;29;20211;-68
2023/09/10 03:28:36;;;;;;;26.48;15.13;;;;;;;14.14;71.02;95254.44;4802759;29;20208;-68
2023/09/10 03:31:03;;;;;;;29.40;16.73;;;;;;;14.10;71.52;95259.38;4801623;29;21046;-68
2023/09/10 03:33:28;;;;;;;23.63;14.83;;;;;;;14.13;71.37;95256.28;4802866;29;20191;-68
2023/09/10 03:35:53;;;;;;;31.40;15.70;;;;;;;14.14;71.51;95262.38;4802950;29;20660;-68
2023/09/10 03:38:19;;;;;;;25.23;13.33;;;;;;;14.13;71.51;95266.06;4802869;29;20194;-68
2023/09/10 03:40:44;;;;;;;22.13;13.30;;;;;;;14.11;71.68;95268.13;4802303;29;20517;-68
2023/09/10 03:43:10;;;;;;;20.27;11.48;;;;;;;14.13;71.48;95268.72;4802725;29;20547;-68
2023/09/10 03:45:35;;;;;;;19.67;12.33;;;;;;;14.13;71.96;95266.06;4802567;29;20530;-68
2023/09/10 03:48:00;;;;;;;20.27;11.88;;;;;;;14.12;72.06;95267.91;4802572;29;20686;-68
2023/09/10 03:50:26;;;;;;;22.87;13.30;;;;;;;14.08;72.28;95265.94;4801933;29;20431;-68
2023/09/10 03:52:52;;;;;;;19.83;9.77;;;;;;;14.01;71.62;95262.56;4802664;29;20281;-68
2023/09/10 03:55:17;;;;;;;14.63;8.63;;;;;;;14.04;71.51;95270.84;4802736;29;20168;-68
2023/09/10 03:57:43;;;;;;;23.90;8.50;;;;;;;14.04;71.74;95272.69;4802746;29;20577;-68
2023/09/10 04:00:09;;;;;;;16.27;6.57;;;;;;;13.92;71.17;95254.09;4805113;29;20190;-68
2023/09/10 04:02:34;;;;;;;11.00;5.23;;;;;;;13.98;71.42;95269.91;4805957;29;20648;-68
2023/09/10 04:05:00;;;;;;;16.53;6.17;;;;;;;13.93;71.46;95272.38;4805891;29;20180;-69
2023/09/10 04:07:25;;;;;;;16.60;7.20;;;;;;;13.89;72.14;95276.53;4805787;29;20668;-69
2023/09/10 04:09:51;;;;;;;19.43;7.90;;;;;;;13.74;73.04;95278.72;4805060;29;20436;-68
2023/09/10 04:12:16;;;;;;;13.17;6.10;;;;;;;13.66;72.72;95275.56;4805928;29;20419;-69
2023/09/10 04:14:42;;;;;;;11.90;5.53;;;;;;;13.63;72.72;95276.81;4805380;29;20260;-69
2023/09/10 04:17:07;;;;;;;16.43;6.30;;;;;;;13.73;72.81;95292.97;4805389;29;20176;-68
2023/09/10 04:19:32;;;;;;;13.90;6.23;;;;;;;13.74;72.91;95288.50;4805186;29;20263;-69
2023/09/10 04:21:58;;;;;;;20.13;5.80;;;;;;;13.78;73.19;95289.66;4805450;29;20184;-69
2023/09/10 04:24:23;;;;;;;19.47;6.00;;;;;;;13.79;73.22;95284.16;4805525;29;20231;-69
2023/09/10 04:26:49;;;;;;;12.70;5.30;;;;;;;13.77;73.02;95277.47;4805300;29;20211;-69
2023/09/10 04:29:14;;;;;;;15.20;5.13;;;;;;;13.85;73.11;95288.56;4805297;29;20234;-68
2023/09/10 04:31:43;;;;;;;8.93;5.23;;;;;;;13.76;72.52;95274.00;4804935;29;20690;-69
2023/09/10 04:34:08;;;;;;;9.87;4.80;;;;;;;13.81;72.65;95268.06;4805238;29;20203;-69
2023/09/10 04:36:34;;;;;;;9.40;4.37;;;;;;;13.96;72.40;95287.03;4805364;29;20230;-68
2023/09/10 04:38:59;;;;;;;11.63;4.57;;;;;;;14.04;72.17;95288.56;4805322;29;20676;-69
2023/09/10 04:41:24;;;;;;;13.10;5.63;;;;;;;14.12;72.41;95282.97;4805179;29;20676;-69
2023/09/10 04:43:50;;;;;;;10.97;5.13;;;;;;;14.23;71.52;95298.13;4805313;29;20216;-69
2023/09/10 04:46:15;;;;;;;15.77;5.30;;;;;;;14.34;71.40;95284.16;4804900;29;20200;-69
2023/09/10 04:48:41;;;;;;;13.60;5.93;;;;;;;14.51;71.00;95293.13;4805069;29;20637;-69
2023/09/10 04:51:07;;;;;;;12.90;5.30;;;;;;;14.65;70.59;95296.38;4805019;29;20195;-68
2023/09/10 04:53:32;;;;;;;13.63;6.20;;;;;;;14.78;69.46;95301.53;4804703;29;20184;-69
2023/09/10 04:55:59;;;;;;;13.80;4.77;;;;;;;14.95;69.14;95299.03;4804554;29;20180;-69
2023/09/10 04:58:24;;;;;;;9.60;4.93;;;;;;;15.36;68.64;95308.78;4804501;29;20570;-69
2023/09/10 05:00:52;;;;;;;18.50;5.77;;;;;;;16.23;66.75;95301.72;4804878;29;20188;-69
2023/09/10 05:03:18;;;;;;;14.30;5.75;;;;;;;17.65;62.43;95296.31;4804603;29;20184;-69
2023/09/10 05:05:44;;;;;;;14.07;5.22;;;;;;;19.27;56.86;95303.63;4804588;29;20208;-69
2023/09/10 05:08:09;;;;;;;12.27;4.57;;;;;;;21.00;51.18;95306.25;4804787;29;20184;-69
2023/09/10 05:10:34;;;;;;;13.40;5.45;;;;;;;22.59;47.34;95309.34;4803297;29;20191;-69
2023/09/10 05:13:00;;;;;;;6.22;3.65;;;;;;;23.74;41.37;95310.03;4804483;29;20275;-69
2023/09/10 05:15:25;;;;;;;6.13;2.78;;;;;;;24.79;38.65;95310.81;4804266;29;20190;-69
2023/09/10 05:17:51;;;;;;;6.93;3.40;;;;;;;25.88;37.65;95321.41;4804570;29;20267;-69
2023/09/10 05:20:16;;;;;;;8.15;3.38;;;;;;;26.84;34.78;95313.41;4804418;29;20183;-69
2023/09/10 05:22:41;;;;;;;21.13;4.05;;;;;;;27.72;33.27;95314.75;4804320;29;20206;-69
2023/09/10 05:25:07;;;;;;;7.07;3.30;;;;;;;28.51;32.80;95309.50;4804428;29;20643;-69
2023/09/10 05:27:33;;;;;;;5.85;3.65;;;;;;;29.22;31.58;95318.31;4804564;29;20219;-69
2023/09/10 05:29:58;;;;;;;7.63;3.33;;;;;;;29.87;30.18;95320.09;4804609;29;20224;-68
2023/09/10 05:32:23;;;;;;;4.10;2.75;;;;;;;30.28;29.03;95326.91;4804351;29;20194;-68
2023/09/10 05:34:49;;;;;;;10.25;3.03;;;;;;;30.73;28.02;95327.25;4804291;29;20184;-68
2023/09/10 05:37:14;;;;;;;4.43;2.92;;;;;;;31.04;27.15;95325.03;4804390;29;20275;-68
2023/09/10 05:39:39;;;;;;;8.73;2.55;;;;;;;31.18;27.50;95337.63;4804353;29;20641;-68
2023/09/10 05:42:05;;;;;;;7.28;2.30;;;;;;;31.65;26.23;95338.28;4804075;29;20182;-68
2023/09/10 05:44:30;;;;;;;4.93;2.53;;;;;;;31.97;25.32;95332.06;4787909;29;20195;-68
2023/09/10 05:46:56;;;;;;;4.07;2.28;;;;;;;32.33;23.91;95325.16;4803780;29;20211;-68
2023/09/10 05:49:21;;;;;;;4.60;2.33;;;;;;;32.55;23.89;95324.75;4803991;29;20267;-68
2023/09/10 05:51:46;;;;;;;7.70;2.42;;;;;;;32.58;24.24;95324.88;4804045;29;20183;-68
2023/09/10 05:54:12;;;;;;;3.40;2.38;;;;;;;32.70;23.86;95320.56;4803799;29;20179;-68
2023/09/10 05:56:37;;;;;;;4.50;2.42;;;;;;;32.86;23.83;95326.97;4804112;29;20677;-68
2023/09/10 05:59:02;;;;;;;7.40;2.97;;;;;;;33.41;23.09;95326.34;4804158;29;20187;-68
2023/09/10 06:01:28;;;;;;;6.32;2.67;;;;;;;33.65;22.58;95331.75;4804171;29;20303;-69
2023/09/10 06:03:53;;;;;;;4.93;2.63;;;;;;;33.72;22.08;95332.00;4803978;29;20324;-69
2023/09/10 06:06:19;;;;;;;4.80;2.88;;;;;;;33.69;22.90;95329.13;4803856;29;20214;-68
2023/09/10 06:08:44;;;;;;;7.72;2.53;;;;;;;34.14;22.43;95341.75;4803830;29;20219;-69
2023/09/10 06:11:09;;;;;;;6.18;2.53;;;;;;;34.05;22.21;95337.25;4803433;29;20184;-69
2023/09/10 06:13:35;;;;;;;4.93;2.40;;;;;;;34.00;22.80;95337.47;4788270;29;20181;-69
2023/09/10 06:16:00;;;;;;;4.65;2.20;;;;;;;34.02;22.35;95339.84;4785354;29;20173;-69
2023/09/10 06:18:26;;;;;;;5.50;3.28;;;;;;;34.08;22.94;95341.19;4785334;30;20206;-69
2023/09/10 06:20:51;;;;;;;4.63;2.95;;;;;;;34.17;22.24;95344.56;4785116;29;20217;-69
2023/09/10 06:23:17;;;;;;;9.02;3.42;;;;;;;34.36;21.77;95339.25;4784109;29;20263;-69
2023/09/10 06:25:42;;;;;;;7.45;3.63;;;;;;;34.38;22.40;95336.19;4784490;29;20201;-69
2023/09/10 06:28:07;;;;;;;5.38;3.92;;;;;;;34.44;22.24;95343.78;4785018;30;20608;-69
2023/09/10 06:30:33;;;;;;;6.05;3.60;;;;;;;33.65;22.97;95311.84;4785057;29;20235;-69
2023/09/10 06:32:58;;;;;;;7.50;3.40;;;;;;;33.27;23.41;95340.38;4785239;29;20184;-69
2023/09/10 06:35:25;;;;;;;5.18;3.47;;;;;;;32.85;24.09;95339.81;4785012;30;20176;-69
2023/09/10 06:37:50;;;;;;;5.72;3.95;;;;;;;32.51;23.89;95340.19;4785109;29;20185;-68
2023/09/10 06:40:16;;;;;;;7.40;4.10;;;;;;;32.00;24.35;95322.44;4785281;29;20233;-68
2023/09/10 06:42:41;;;;;;;8.27;3.85;;;;;;;31.66;24.25;95329.75;4785169;29;20641;-68
2023/09/10 06:45:07;;;;;;;6.10;3.55;;;;;;;31.40;24.92;95331.84;4784479;29;20185;-69
2023/09/10 06:47:32;;;;;;;5.13;3.95;;;;;;;30.86;26.22;95330.88;4784845;30;20188;-68
2023/09/10 06:49:58;;;;;;;8.90;4.22;;;;;;;30.88;25.80;95323.97;4784848;29;20182;-68
2023/09/10 06:52:23;;;;;;;5.82;3.60;;;;;;;30.97;25.76;95332.88;4784067;29;20188;-68
2023/09/10 06:54:49;;;;;;;4.72;3.17;;;;;;;30.71;26.20;95333.00;4784654;29;20226;-68
2023/09/10 06:57:14;;;;;;;5.97;4.00;;;;;;;30.32;26.89;95331.38;4784997;29;20215;-68
2023/09/10 06:59:40;;;;;;;5.97;3.53;;;;;;;30.09;26.13;95321.06;4784894;29;20184;-68
2023/09/10 07:02:06;;;;;;;7.03;3.50;;;;;;;30.00;27.14;95330.03;4784660;29;20246;-68
2023/09/10 07:04:31;;;;;;;6.88;2.95;;;;;;;29.46;26.47;95323.31;4784491;29;20192;-69
2023/09/10 07:06:57;;;;;;;8.05;3.05;;;;;;;29.33;27.70;95323.41;4784619;29;20308;-68
2023/09/10 07:09:23;;;;;;;5.80;2.72;;;;;;;28.93;27.71;95317.28;4785202;29;20188;-68
2023/09/10 07:11:50;;;;;;;4.63;2.22;;;;;;;28.52;28.65;95329.25;4784668;29;20192;-68
2023/09/10 07:14:15;;;;;;;5.78;2.42;;;;;;;27.94;29.41;95311.22;4784645;29;20176;-68
2023/09/10 07:16:41;;;;;;;5.40;2.60;;;;;;;27.76;30.39;95320.34;4784660;29;20181;-68
2023/09/10 07:19:06;;;;;;;7.35;3.28;;;;;;;27.80;29.99;95321.31;4784838;29;20722;-68
2023/09/10 07:21:32;;;;;;;5.88;2.17;;;;;;;28.08;30.13;95324.69;4799709;29;20190;-68
2023/09/10 07:23:58;;;;;;;4.25;2.72;;;;;;;28.29;29.41;95320.38;4802832;29;20187;-69
2023/09/10 07:26:23;;;;;;;4.70;2.40;;;;;;;28.22;29.20;95321.91;4802785;29;20627;-68
2023/09/10 07:28:48;;;;;;;11.45;3.72;;;;;;;28.42;29.99;95321.41;4795969;29;20184;-68
2023/09/10 07:31:14;;;;;;;6.40;2.53;;;;;;;28.54;29.77;95322.38;4791414;29;20235;-68
2023/09/10 07:33:39;;;;;;;6.28;2.95;;;;;;;28.62;28.43;95320.84;4793107;29;20195;-68
2023/09/10 07:36:05;;;;;;;4.97;2.55;;;;;;;28.86;28.76;95312.34;4795509;29;20181;-68
2023/09/10 07:38:31;;;;;;;4.53;2.50;;;;;;;28.80;27.42;95306.25;4794928;29;20187;-68
2023/09/10 07:40:57;;;;;;;5.18;2.75;;;;;;;28.80;28.82;95308.94;4794521;29;20653;-68
2023/09/10 07:43:23;;;;;;;4.40;2.40;;;;;;;28.98;29.24;95306.28;4792295;29;20183;-67
2023/09/10 07:45:49;;;;;;;3.20;2.00;;;;;;;28.97;28.00;95307.44;4787834;29;20216;-68
2023/09/10 07:48:15;;;;;;;7.00;2.35;;;;;;;28.72;28.32;95307.00;4787343;29;20220;-68
2023/09/10 07:50:41;;;;;;;4.47;2.10;;;;;;;28.48;27.70;95288.44;4787731;29;20952;-67
2023/09/10 07:53:07;;;;;;;3.53;2.35;;;;;;;28.13;28.19;95303.69;4787292;29;20655;-67
2023/09/10 07:55:35;;;;;;;8.05;2.72;;;;;;;27.79;28.43;95304.28;4787307;29;20259;-67
2023/09/10 07:58:00;;;;;;;3.15;2.45;;;;;;;27.61;29.50;95299.84;4788358;29;20185;-67
2023/09/10 08:00:25;;;;;;;7.82;2.63;;;;;;;27.80;28.43;95305.09;4805393;29;20245;-67
2023/09/10 08:02:51;;;;;;;8.02;2.20;;;;;;;28.27;28.41;95298.22;4805556;29;20176;-68
2023/09/10 08:05:16;;;;;;;3.83;2.30;;;;;;;28.55;27.66;95301.50;4794357;29;20176;-68
2023/09/10 08:07:41;;;;;;;4.82;2.45;;;;;;;28.73;26.93;95299.66;4794320;29;20177;-68
2023/09/10 08:10:07;;;;;;;6.00;2.03;;;;;;;28.69;27.63;95296.78;4793376;29;20216;-68
2023/09/10 08:12:33;;;;;;;4.55;2.03;;;;;;;28.81;26.25;95297.00;4792843;29;20645;-67
2023/09/10 08:14:58;;;;;;;6.85;2.33;;;;;;;29.12;26.95;95296.91;4793989;29;20199;-68
2023/09/10 08:17:24;;;;;;;5.85;2.13;;;;;;;29.23;25.94;95302.84;4787988;29;20189;-68
2023/09/10 08:19:49;;;;;;;4.38;1.90;;;;;;;29.63;24.68;95296.16;4787275;30;20196;-68
2023/09/10 08:22:15;;;;;;;9.40;2.33;;;;;;;29.67;23.71;95300.94;4793938;29;20266;-68
2023/09/10 08:24:41;;;;;;;3.50;2.20;;;;;;;29.19;24.89;95291.81;4805617;29;20188;-68
2023/09/10 08:27:11;;;;;;;6.88;2.17;;;;;;;29.04;26.10;95294.19;4805229;29;20307;-68
2023/09/10 08:29:36;;;;;;;4.88;2.40;;;;;;;28.91;26.02;95293.19;4805022;29;20608;-68
2023/09/10 08:32:02;;;;;;;3.92;2.20;;;;;;;28.05;27.19;95269.25;4805246;29;20187;-68
2023/09/10 08:34:27;;;;;;;5.38;2.53;;;;;;;28.32;27.86;95267.47;4788989;29;20728;-69
2023/09/10 08:36:53;;;;;;;5.05;2.53;;;;;;;28.71;26.91;95281.03;4805403;29;20183;-69
2023/09/10 08:39:18;;;;;;;6.07;2.20;;;;;;;28.94;27.21;95284.44;4805313;29;20637;-69
2023/09/10 08:42:11;;;;;;;4.68;2.47;;;;;;;28.92;27.74;95283.16;4805159;29;20267;-68
2023/09/10 08:44:41;;;;;;;6.63;2.80;;;;;;;28.31;28.70;95274.81;4804919;29;20267;-68
2023/09/10 08:47:08;;;;;;;6.05;2.58;;;;;;;28.57;28.59;95282.22;4792522;29;20242;-68
2023/09/10 08:49:40;;;;;;;8.65;2.58;;;;;;;28.48;28.76;95279.50;4786814;29;20187;-68
2023/09/10 08:52:06;;;;;;;6.05;2.58;;;;;;;28.60;29.23;95278.91;4787074;29;20192;-69
2023/09/10 08:54:32;;;;;;;3.92;2.40;;;;;;;28.25;29.32;95280.69;4786868;29;20665;-68
2023/09/10 08:56:59;;;;;;;6.05;2.65;;;;;;;28.19;29.41;95279.22;4786855;29;20184;-68
2023/09/10 08:59:24;;;;;;;9.77;3.00;;;;;;;28.50;30.93;95277.28;4790783;29;20230;-68
2023/09/10 09:01:50;;;;;;;4.07;2.60;;;;;;;28.72;29.94;95258.19;4797903;29;20219;-68
2023/09/10 09:04:17;;;;;;;4.25;2.40;;;;;;;28.52;29.67;95278.56;4785697;29;20191;-68
2023/09/10 09:06:51;;;;;;;4.90;2.58;;;;;;;28.49;29.90;95273.78;4785736;29;20311;-68
2023/09/10 09:09:20;;;;;;;4.88;2.88;;;;;;;28.26;30.24;95269.53;4786025;29;20574;-68
2023/09/10 09:11:48;;;;;;;3.53;2.40;;;;;;;28.36;30.52;95271.19;4789085;29;20216;-68
2023/09/10 09:14:14;;;;;;;7.88;2.75;;;;;;;28.06;30.67;95270.84;4792902;29;20260;-68
2023/09/10 09:16:40;;;;;;;5.28;2.38;;;;;;;28.08;31.55;95275.97;4791805;29;20594;-68
2023/09/10 09:19:13;;;;;;;5.70;2.40;;;;;;;27.87;31.44;95277.56;4793761;29;20185;-68
2023/09/10 09:21:43;;;;;;;3.85;2.85;;;;;;;27.83;31.73;95274.72;4792722;29;20267;-68
2023/09/10 09:24:12;;;;;;;5.93;2.60;;;;;;;28.06;32.06;95270.84;4786921;29;20679;-69
2023/09/10 09:26:39;;;;;;;5.72;3.00;;;;;;;27.95;31.82;95263.28;4786557;29;20219;-68
2023/09/10 09:29:06;;;;;;;4.75;2.65;;;;;;;27.84;31.36;95265.47;4770276;30;20555;-68
2023/09/10 09:31:32;;;;;;;4.63;2.97;;;;;;;27.76;31.71;95263.53;4786298;29;20195;-67
2023/09/10 09:33:58;;;;;;;6.13;2.72;;;;;;;27.24;32.98;95265.81;4786564;29;20242;-68
2023/09/10 09:36:28;;;;;;;4.55;2.75;;;;;;;27.12;32.75;95262.84;4786509;29;20665;-68
2023/09/10 09:38:57;;;;;;;7.40;3.53;;;;;;;27.06;33.35;95255.97;4786270;29;20658;-68
2023/09/10 09:41:22;;;;;;;6.10;2.95;;;;;;;27.21;32.60;95258.31;4786006;29;20188;-68
2023/09/10 09:43:48;;;;;;;6.85;2.63;;;;;;;26.86;33.31;95254.47;4785854;29;20264;-68
2023/09/10 09:46:13;;;;;;;4.90;2.88;;;;;;;26.75;33.09;95265.78;4785431;29;20236;-68
2023/09/10 09:48:39;;;;;;;5.03;2.35;;;;;;;26.63;33.81;95252.81;4785740;29;20195;-67
2023/09/10 09:51:05;;;;;;;5.28;2.50;;;;;;;26.56;34.38;95245.09;4785406;29;20192;-67
2023/09/10 09:53:32;;;;;;;4.57;2.45;;;;;;;26.85;33.88;95250.16;4785935;29;20585;-67
2023/09/10 09:56:04;;;;;;;10.60;2.92;;;;;;;26.85;33.88;95244.75;4785344;29;20188;-67
2023/09/10 09:58:30;;;;;;;7.32;3.13;;;;;;;27.08;33.99;95242.13;4785732;29;20193;-69
2023/09/10 10:00:56;;;;;;;5.20;2.83;;;;;;;27.09;33.73;95228.31;4785724;29;20266;-67
2023/09/10 10:03:22;;;;;;;4.45;2.42;;;;;;;27.09;33.26;95236.41;4785648;30;20492;-67
2023/09/10 10:05:49;;;;;;;6.75;2.80;;;;;;;26.94;33.64;95225.94;4786144;29;20220;-67
2023/09/10 10:08:15;;;;;;;4.82;3.00;;;;;;;26.73;33.89;95235.56;4785786;29;20189;-68
2023/09/10 10:10:48;;;;;;;4.45;2.40;;;;;;;26.59;34.12;95241.00;4785728;29;20243;-68
2023/09/10 10:13:17;;;;;;;5.95;3.25;;;;;;;26.55;34.50;95231.91;4785580;29;20568;-68
2023/09/10 10:15:47;;;;;;;6.78;2.80;;;;;;;26.38;34.94;95227.09;4785452;29;20180;-68
2023/09/10 10:18:15;;;;;;;4.65;3.17;;;;;;;26.43;35.13;95229.72;4784043;29;20633;-68
2023/09/10 10:20:40;;;;;;;6.30;2.95;;;;;;;26.36;34.81;95225.81;4785447;29;20200;-68
2023/09/10 10:23:07;;;;;;;7.95;2.97;;;;;;;26.34;35.11;95215.31;4785534;30;20195;-68
2023/09/10 10:25:34;;;;;;;3.78;2.83;;;;;;;26.45;35.40;95211.31;4785422;29;20752;-68
2023/09/10 10:28:03;;;;;;;4.75;2.90;;;;;;;26.42;34.74;95216.50;4785333;29;20184;-68
2023/09/10 10:30:30;;;;;;;8.88;3.05;;;;;;;26.58;34.74;95206.97;4785167;29;20643;-68
2023/09/10 10:32:57;;;;;;;11.95;2.88;;;;;;;26.65;34.80;95218.16;4785273;29;20188;-68
2023/09/10 10:35:28;;;;;;;4.57;2.83;;;;;;;26.56;35.20;95195.69;4785277;29;20191;-68
2023/09/10 10:38:03;;;;;;;3.42;2.83;;;;;;;26.52;34.70;95202.81;4785338;29;20180;-70
2023/09/10 10:40:35;;;;;;;5.68;2.75;;;;;;;26.56;34.46;95201.88;4785406;29;20184;-68
2023/09/10 10:43:05;;;;;;;7.47;2.90;;;;;;;26.67;34.21;95202.47;4784931;29;20212;-68
2023/09/10 10:45:33;;;;;;;6.28;2.97;;;;;;;26.72;33.57;95199.66;4783132;29;20216;-68
2023/09/10 10:48:03;;;;;;;7.18;2.80;;;;;;;26.51;34.17;95191.19;4783334;29;20192;-68
2023/09/10 10:50:31;;;;;;;4.78;2.63;;;;;;;26.54;34.69;95189.81;4784995;29;20654;-68
2023/09/10 10:53:04;;;;;;;4.07;2.85;;;;;;;26.68;34.30;95191.34;4785056;29;20191;-68
2023/09/10 10:55:33;;;;;;;5.25;2.80;;;;;;;26.52;34.07;95175.78;4785242;29;20958;-68
2023/09/10 10:57:59;;;;;;;3.85;2.70;;;;;;;26.32;34.07;95195.91;4784920;29;20184;-68
2023/09/10 11:00:26;;;;;;;6.65;3.00;;;;;;;26.35;34.67;95181.81;4783354;30;20197;-68
2023/09/10 11:03:11;;;;;;;4.32;2.83;;;;;;;26.41;34.58;95179.81;4785043;29;20575;-68
2023/09/10 11:05:52;;;;;;;3.85;2.63;;;;;;;26.54;35.09;95177.09;4785028;29;20214;-68
2023/09/10 11:08:30;;;;;;;6.82;2.75;;;;;;;26.65;34.73;95177.66;4786475;29;20680;-68
2023/09/10 11:10:59;;;;;;;5.22;2.60;;;;;;;26.70;34.34;95179.44;4786531;30;20283;-68
2023/09/10 11:13:25;;;;;;;3.35;2.80;;;;;;;26.58;34.03;95172.66;4786435;29;20597;-68
2023/09/10 11:16:14;;;;;;;3.45;2.70;;;;;;;26.49;34.47;95171.78;4788384;29;20188;-68
2023/09/10 11:18:41;;;;;;;4.88;2.63;;;;;;;26.61;35.19;95171.28;4782251;29;20196;-68
2023/09/10 11:21:07;;;;;;;4.93;2.78;;;;;;;26.67;33.98;95168.16;4788655;29;20193;-68
2023/09/10 11:23:34;;;;;;;5.32;2.95;;;;;;;26.68;34.11;95167.03;4788498;29;20196;-69
2023/09/10 11:26:12;;;;;;;5.00;3.00;;;;;;;26.59;34.37;95160.75;4772069;30;20301;-69
2023/09/10 11:28:47;;;;;;;15.82;3.45;;;;;;;26.50;34.50;95153.69;4788363;29;20252;-69